createdAt,value
2023-01-11T00:00:33.921Z,1.93
2023-01-11T00:03:03.223Z,1.92
2023-01-11T00:05:29.959Z,1.95
2023-01-11T00:07:56.737Z,2.01
2023-01-11T00:10:23.388Z,2.00
2023-01-11T00:12:50.148Z,2.05
2023-01-11T00:15:16.863Z,2.08
2023-01-11T00:17:43.556Z,2.20
2023-01-11T00:20:11.199Z,2.08
2023-01-11T00:22:37.956Z,2.30
2023-01-11T00:25:05.453Z,2.49
2023-01-11T00:27:33.416Z,2.44
2023-01-11T00:30:00.060Z,2.52
2023-01-11T00:32:27.430Z,2.29
2023-01-11T00:34:54.702Z,2.25
2023-01-11T00:37:21.756Z,2.14
2023-01-11T00:39:48.606Z,2.32
2023-01-11T00:42:34.093Z,2.32
2023-01-11T00:45:19.313Z,2.31
2023-01-11T00:47:58.023Z,2.22
2023-01-11T00:50:25.652Z,2.38
2023-01-11T00:52:52.682Z,2.37
2023-01-11T00:55:19.369Z,2.40
2023-01-11T00:57:45.917Z,2.30
2023-01-11T01:00:13.602Z,2.29
2023-01-11T01:02:40.314Z,2.33
2023-01-11T01:05:07.558Z,2.62
2023-01-11T01:07:34.201Z,2.42
2023-01-11T01:10:00.722Z,2.52
2023-01-11T01:12:46.432Z,2.35
2023-01-11T01:15:13.242Z,2.29
2023-01-11T01:17:39.737Z,2.24
2023-01-11T01:20:07.146Z,2.32
2023-01-11T01:22:34.710Z,2.31
2023-01-11T01:25:01.394Z,2.26
2023-01-11T01:27:28.006Z,2.38
2023-01-11T01:29:54.521Z,2.40
2023-01-11T01:32:21.454Z,2.41
2023-01-11T01:34:47.979Z,2.38
2023-01-11T01:37:16.012Z,2.34
2023-01-11T01:39:42.627Z,2.55
2023-01-11T01:42:17.317Z,2.45
2023-01-11T01:45:26.103Z,2.75
2023-01-11T01:48:01.653Z,2.87
2023-01-11T01:50:42.164Z,2.97
2023-01-11T01:53:17.502Z,3.16
2023-01-11T01:55:50.805Z,3.19
2023-01-11T01:58:22.700Z,3.22
2023-01-11T02:00:49.273Z,3.28
2023-01-11T02:03:19.327Z,3.19
2023-01-11T02:05:46.349Z,3.29
2023-01-11T02:08:22.708Z,3.40
2023-01-11T02:10:49.901Z,3.45
2023-01-11T02:13:17.117Z,3.39
2023-01-11T02:15:43.772Z,3.29
2023-01-11T02:18:13.007Z,3.51
2023-01-11T02:20:42.211Z,3.48
2023-01-11T02:23:30.684Z,3.60
2023-01-11T02:26:06.653Z,3.56
2023-01-11T02:28:54.272Z,3.65
2023-01-11T02:31:44.233Z,3.62
2023-01-11T02:34:17.686Z,3.54
2023-01-11T02:37:07.671Z,3.60
2023-01-11T02:39:56.188Z,3.68
2023-01-11T02:42:53.764Z,3.61
2023-01-11T02:45:28.104Z,3.34
2023-01-11T02:48:02.587Z,3.40
2023-01-11T02:50:34.686Z,3.38
2023-01-11T02:53:30.099Z,3.49
2023-01-11T02:55:59.917Z,3.40
2023-01-11T02:58:31.944Z,3.27
2023-01-11T03:00:59.682Z,3.55
2023-01-11T03:03:29.692Z,3.51
2023-01-11T03:06:08.694Z,3.52
2023-01-11T03:08:44.781Z,3.42
2023-01-11T03:11:52.898Z,3.54
2023-01-11T03:14:29.328Z,3.72
2023-01-11T03:17:19.407Z,3.73
2023-01-11T03:19:54.383Z,3.61
2023-01-11T03:22:27.002Z,3.70
2023-01-11T03:24:57.777Z,3.54
2023-01-11T03:27:34.430Z,3.66
2023-01-11T03:30:21.748Z,3.19
2023-01-11T03:32:53.001Z,3.07
2023-01-11T03:35:30.219Z,3.21
2023-01-11T03:38:06.692Z,3.18
2023-01-11T03:40:38.119Z,3.35
2023-01-11T03:43:11.010Z,3.43
2023-01-11T03:45:40.232Z,3.60
2023-01-11T03:48:14.091Z,3.67
2023-01-11T03:50:42.177Z,3.64
2023-01-11T03:53:10.503Z,3.14
2023-01-11T03:55:42.387Z,3.40
2023-01-11T03:58:09.736Z,3.60
2023-01-11T04:00:37.813Z,3.49
2023-01-11T04:03:05.288Z,3.21
2023-01-11T04:05:34.623Z,3.07
2023-01-11T04:08:01.214Z,3.13
2023-01-11T04:10:27.929Z,3.44
2023-01-11T04:12:54.710Z,3.32
2023-01-11T04:15:21.513Z,3.13
2023-01-11T04:17:48.095Z,2.99
2023-01-11T04:20:14.819Z,3.17
2023-01-11T04:22:41.585Z,3.18
2023-01-11T04:25:09.929Z,3.15
2023-01-11T04:27:36.405Z,3.31
2023-01-11T04:30:03.725Z,2.94
2023-01-11T04:32:30.437Z,2.99
2023-01-11T04:34:57.237Z,2.89
2023-01-11T04:37:23.947Z,3.08
2023-01-11T04:39:50.566Z,2.86
2023-01-11T04:42:19.688Z,2.70
2023-01-11T04:44:48.887Z,2.78
2023-01-11T04:47:17.577Z,2.81
2023-01-11T04:49:44.638Z,2.66
2023-01-11T04:52:13.119Z,2.74
2023-01-11T04:54:39.961Z,2.70
2023-01-11T04:57:07.797Z,2.75
2023-01-11T04:59:34.606Z,2.52
2023-01-11T05:02:01.384Z,2.73
2023-01-11T05:04:28.004Z,2.69
2023-01-11T05:06:55.389Z,2.70
2023-01-11T05:09:22.611Z,2.75
2023-01-11T05:11:49.219Z,2.89
2023-01-11T05:14:17.188Z,2.70
2023-01-11T05:16:44.324Z,2.68
2023-01-11T05:19:12.324Z,2.70
2023-01-11T05:21:41.407Z,2.81
2023-01-11T05:24:14.734Z,2.76
2023-01-11T05:26:43.903Z,2.74
2023-01-11T05:29:13.346Z,2.64
2023-01-11T05:31:40.905Z,2.70
2023-01-11T05:34:07.726Z,2.70
2023-01-11T05:36:35.551Z,2.60
2023-01-11T05:39:02.491Z,2.60
2023-01-11T05:41:29.420Z,2.69
2023-01-11T05:44:15.894Z,2.61
2023-01-11T05:46:44.484Z,2.69
2023-01-11T05:49:12.768Z,2.74
2023-01-11T05:51:39.959Z,2.68
2023-01-11T05:54:10.114Z,2.57
2023-01-11T05:56:36.945Z,2.56
2023-01-11T05:59:04.204Z,2.45
2023-01-11T06:01:31.954Z,2.49
2023-01-11T06:03:58.868Z,2.60
2023-01-11T06:06:25.720Z,2.61
2023-01-11T06:08:52.274Z,2.66
2023-01-11T06:11:19.035Z,2.72
2023-01-11T06:13:45.672Z,2.71
2023-01-11T06:16:14.991Z,2.74
2023-01-11T06:18:44.265Z,2.76
2023-01-11T06:21:12.139Z,2.81
2023-01-11T06:23:41.155Z,2.74
2023-01-11T06:26:13.167Z,2.71
2023-01-11T06:28:40.468Z,2.66
2023-01-11T06:31:07.362Z,2.70
2023-01-11T06:33:34.636Z,2.67
2023-01-11T06:36:10.367Z,2.62
2023-01-11T06:38:37.905Z,2.58
2023-01-11T06:41:08.456Z,2.51
2023-01-11T06:43:36.857Z,2.51
2023-01-11T06:46:04.078Z,2.70
2023-01-11T06:48:31.008Z,2.67
2023-01-11T06:50:58.701Z,2.71
2023-01-11T06:53:28.611Z,2.81
2023-01-11T06:55:58.635Z,2.86
2023-01-11T06:58:26.468Z,2.78
2023-01-11T07:00:55.949Z,2.68
2023-01-11T07:03:24.479Z,2.74
2023-01-11T07:05:52.369Z,2.66
2023-01-11T07:08:19.482Z,2.66
2023-01-11T07:10:46.680Z,2.67
2023-01-11T07:13:16.160Z,2.71
2023-01-11T07:15:48.459Z,2.66
2023-01-11T07:18:15.104Z,2.71
2023-01-11T07:20:41.806Z,2.82
2023-01-11T07:23:08.682Z,2.74
2023-01-11T07:25:35.581Z,2.68
2023-01-11T07:28:07.226Z,2.73
2023-01-11T07:30:51.794Z,2.83
2023-01-11T07:33:18.788Z,2.83
2023-01-11T07:35:45.527Z,2.85
2023-01-11T07:38:12.011Z,2.79
2023-01-11T07:40:39.996Z,2.77
2023-01-11T07:43:14.569Z,3.20
2023-01-11T07:45:49.209Z,3.04
2023-01-11T07:48:27.387Z,2.93
2023-01-11T07:50:54.815Z,2.94
2023-01-11T07:53:21.866Z,2.88
2023-01-11T07:55:48.443Z,2.79
2023-01-11T07:58:15.811Z,2.84
2023-01-11T08:00:42.375Z,2.90
2023-01-11T08:03:09.834Z,2.85
2023-01-11T08:05:36.802Z,2.89
2023-01-11T08:08:03.932Z,2.86
2023-01-11T08:10:30.810Z,2.81
2023-01-11T08:13:15.802Z,2.82
2023-01-11T08:15:42.700Z,2.81
2023-01-11T08:18:11.582Z,3.19
2023-01-11T08:20:39.184Z,3.63
2023-01-11T08:23:08.346Z,3.45
2023-01-11T08:25:35.083Z,2.86
2023-01-11T08:28:03.439Z,2.95
2023-01-11T08:30:30.396Z,2.85
2023-01-11T08:32:57.736Z,2.96
2023-01-11T08:35:25.864Z,2.87
2023-01-11T08:37:52.945Z,2.81
2023-01-11T08:40:21.050Z,2.85
2023-01-11T08:42:48.799Z,2.95
2023-01-11T08:45:15.416Z,3.04
2023-01-11T08:47:41.912Z,2.99
2023-01-11T08:50:09.763Z,3.18
2023-01-11T08:52:36.265Z,3.25
2023-01-11T08:55:02.912Z,3.23
2023-01-11T08:57:29.456Z,3.43
2023-01-11T08:59:56.003Z,3.28
2023-01-11T09:02:22.636Z,3.31
2023-01-11T09:04:49.164Z,3.37
2023-01-11T09:07:15.766Z,3.40
2023-01-11T09:09:42.293Z,3.43
2023-01-11T09:12:08.792Z,3.53
2023-01-11T09:14:35.335Z,3.32
2023-01-11T09:17:01.928Z,3.24
2023-01-11T09:19:28.525Z,3.34
2023-01-11T09:21:57.785Z,4.05
2023-01-11T09:24:24.364Z,4.10
2023-01-11T09:26:51.020Z,3.49
2023-01-11T09:29:18.933Z,3.33
2023-01-11T09:31:45.669Z,3.54
2023-01-11T09:34:12.902Z,3.44
2023-01-11T09:36:40.332Z,3.44
2023-01-11T09:39:10.669Z,3.50
2023-01-11T09:41:50.923Z,3.53
2023-01-11T09:44:23.342Z,3.67
2023-01-11T09:46:56.734Z,3.43
2023-01-11T09:49:29.725Z,3.46
2023-01-11T09:52:15.228Z,3.14
2023-01-11T09:54:43.356Z,3.16
2023-01-11T09:57:22.655Z,3.38
2023-01-11T10:00:06.757Z,3.27
2023-01-11T10:03:07.025Z,3.48
2023-01-11T10:05:55.899Z,3.42
2023-01-11T10:18:31.575Z,3.37
2023-01-11T10:18:34.381Z,3.63
2023-01-11T10:21:12.177Z,3.79
2023-01-11T10:23:50.462Z,3.49
2023-01-11T10:26:32.479Z,3.43
2023-01-11T10:29:22.233Z,3.44
2023-01-11T10:32:22.305Z,3.44
2023-01-11T10:35:13.737Z,3.45
2023-01-11T10:38:05.908Z,3.35
2023-01-11T10:41:04.371Z,3.30
2023-01-11T10:43:35.515Z,3.35
2023-01-11T10:46:13.040Z,3.42
2023-01-11T10:48:42.765Z,3.49
2023-01-11T10:51:15.080Z,3.69
2023-01-11T10:53:48.724Z,3.82
2023-01-11T10:57:02.584Z,3.64
2023-01-11T11:00:04.650Z,3.68
2023-01-11T11:03:02.030Z,3.68
2023-01-11T11:06:13.193Z,3.65
2023-01-11T11:08:53.062Z,3.66
2023-01-11T11:11:26.167Z,3.70
2023-01-11T11:14:08.045Z,3.88
2023-01-11T11:17:05.210Z,3.91
2023-01-11T11:19:33.339Z,4.08
2023-01-11T11:22:00.488Z,3.55
2023-01-11T11:24:33.219Z,3.51
2023-01-11T11:27:19.629Z,3.42
2023-01-11T11:29:52.859Z,3.48
2023-01-11T11:32:36.926Z,3.53
2023-01-11T11:35:04.679Z,3.45
2023-01-11T11:37:37.089Z,3.47
2023-01-11T11:40:04.124Z,3.45
2023-01-11T11:42:30.632Z,3.39
2023-01-11T11:45:09.411Z,3.40
2023-01-11T11:47:37.505Z,3.40
2023-01-11T11:50:42.039Z,3.57
2023-01-11T11:53:06.213Z,3.37
2023-01-11T11:55:34.833Z,3.32
2023-01-11T11:58:13.180Z,3.52
2023-01-11T12:00:50.421Z,3.47
2023-01-11T12:03:27.381Z,3.34
2023-01-11T12:06:01.265Z,3.43
2023-01-11T12:08:30.030Z,3.46
2023-01-11T12:10:59.839Z,3.50
2023-01-11T12:13:36.539Z,3.56
2023-01-11T12:16:06.386Z,3.53
2023-01-11T12:18:43.563Z,3.78
2023-01-11T12:21:19.098Z,3.75
2023-01-11T12:23:45.949Z,3.55
2023-01-11T12:26:20.161Z,3.73
2023-01-11T12:28:49.870Z,3.52
2023-01-11T12:31:39.359Z,3.54
2023-01-11T12:34:30.915Z,3.43
2023-01-11T12:37:09.601Z,3.48
2023-01-11T12:39:49.411Z,3.40
2023-01-11T12:42:47.683Z,3.20
2023-01-11T12:45:50.012Z,3.17
2023-01-11T12:48:38.480Z,3.02
2023-01-11T12:51:10.651Z,3.09
2023-01-11T12:53:52.450Z,3.07
2023-01-11T12:56:53.121Z,3.17
2023-01-11T12:59:42.789Z,3.19
2023-01-11T13:02:45.720Z,3.11
2023-01-11T13:05:31.855Z,3.03
2023-01-11T13:08:12.457Z,3.03
2023-01-11T13:10:56.288Z,2.97
2023-01-11T13:13:36.304Z,2.85
2023-01-11T13:16:17.971Z,2.84
2023-01-11T13:18:59.216Z,2.83
2023-01-11T13:21:34.497Z,2.81
2023-01-11T13:24:13.363Z,2.79
2023-01-11T13:26:44.051Z,2.79
2023-01-11T13:29:20.185Z,2.71
2023-01-11T13:31:48.567Z,2.75
2023-01-11T13:34:26.927Z,2.73
2023-01-11T13:37:06.524Z,2.73
2023-01-11T13:39:48.577Z,2.60
2023-01-11T13:42:22.920Z,2.62
2023-01-11T13:44:58.400Z,2.59
2023-01-11T13:47:35.968Z,2.50
2023-01-11T13:50:16.749Z,2.54
2023-01-11T13:53:06.158Z,2.48
2023-01-11T13:55:58.914Z,2.44
2023-01-11T13:58:32.429Z,2.38
2023-01-11T14:01:13.319Z,2.43
2023-01-11T14:04:01.105Z,2.37
2023-01-11T14:07:15.676Z,2.39
2023-01-11T14:10:03.615Z,2.39
2023-01-11T14:12:49.400Z,2.27
2023-01-11T14:15:22.028Z,2.35
2023-01-11T14:18:12.943Z,2.31
2023-01-11T14:21:02.850Z,2.28
2023-01-11T14:23:52.467Z,2.30
2023-01-11T14:26:31.332Z,2.26
2023-01-11T14:29:32.312Z,2.31
2023-01-11T14:32:26.285Z,2.23
2023-01-11T14:35:29.023Z,2.26
2023-01-11T14:38:17.943Z,2.21
2023-01-11T14:41:23.759Z,2.17
2023-01-11T14:44:12.277Z,2.21
2023-01-11T14:46:50.981Z,2.17
2023-01-11T14:49:45.646Z,2.23
2023-01-11T14:52:34.531Z,2.17
2023-01-11T14:55:15.670Z,2.22
2023-01-11T14:57:46.438Z,2.28
2023-01-11T15:00:18.782Z,2.32
2023-01-11T15:02:46.831Z,2.34
2023-01-11T15:05:35.799Z,2.39
2023-01-11T15:08:14.575Z,2.32
2023-01-11T15:10:52.526Z,2.40
2023-01-11T15:13:24.302Z,2.39
2023-01-11T15:16:11.282Z,2.41
2023-01-11T15:18:44.797Z,2.42
2023-01-11T15:21:18.186Z,2.37
2023-01-11T15:23:56.575Z,2.42
2023-01-11T15:26:25.894Z,2.36
2023-01-11T15:28:58.205Z,2.42
2023-01-11T15:31:39.228Z,2.44
2023-01-11T15:34:18.547Z,2.41
2023-01-11T15:37:00.088Z,2.43
2023-01-11T15:39:48.369Z,2.48
2023-01-11T15:42:17.998Z,2.48
2023-01-11T15:45:35.127Z,2.53
2023-01-11T15:48:34.821Z,2.55
2023-01-11T15:51:30.047Z,2.59
2023-01-11T15:53:58.466Z,2.65
2023-01-11T15:59:52.288Z,2.70
2023-01-11T16:02:48.803Z,2.72
2023-01-11T16:05:28.098Z,2.73
2023-01-11T16:08:18.397Z,2.80
2023-01-11T16:10:47.979Z,2.81
2023-01-11T16:13:45.259Z,2.80
2023-01-11T16:16:22.312Z,2.87
2023-01-11T16:18:53.977Z,2.88
2023-01-11T16:21:41.620Z,2.88
2023-01-11T16:24:10.197Z,2.94
2023-01-11T16:26:39.641Z,2.91
2023-01-11T16:29:12.904Z,2.90
2023-01-11T16:31:53.244Z,2.91
2023-01-11T16:34:19.959Z,2.94
2023-01-11T16:36:49.163Z,2.93
2023-01-11T16:39:27.419Z,2.92
2023-01-11T16:42:07.321Z,2.97
2023-01-11T16:44:37.227Z,3.00
2023-01-11T16:47:19.223Z,2.99
2023-01-11T16:50:06.947Z,3.01
2023-01-11T16:52:39.190Z,3.01
2023-01-11T16:55:36.245Z,3.02
2023-01-11T16:58:28.882Z,3.05
2023-01-11T17:01:00.996Z,3.08
2023-01-11T17:03:30.927Z,3.08
2023-01-11T17:05:57.469Z,3.08
2023-01-11T17:08:34.910Z,3.12
2023-01-11T17:11:46.732Z,3.17
2023-01-11T17:14:45.655Z,3.19
2023-01-11T17:17:13.196Z,3.25
2023-01-11T17:19:46.083Z,3.34
2023-01-11T17:22:17.482Z,3.33
2023-01-11T17:24:50.847Z,3.30
2023-01-11T17:27:30.087Z,3.36
2023-01-11T17:29:58.331Z,3.36
2023-01-11T17:32:47.677Z,3.40
2023-01-11T17:35:20.223Z,3.40
2023-01-11T17:37:50.230Z,3.44
2023-01-11T17:40:23.137Z,3.46
2023-01-11T17:43:10.054Z,3.45
2023-01-11T17:45:37.742Z,3.45
2023-01-11T17:48:13.219Z,3.47
2023-01-11T17:50:47.428Z,3.48
2023-01-11T17:53:17.209Z,3.48
2023-01-11T17:56:01.732Z,3.48
2023-01-11T17:58:36.067Z,3.50
2023-01-11T18:01:08.544Z,3.54
2023-01-11T18:03:52.017Z,3.53
2023-01-11T18:06:35.355Z,3.52
2023-01-11T18:09:06.323Z,3.52
2023-01-11T18:11:36.408Z,3.52
2023-01-11T18:14:16.696Z,3.59
2023-01-11T18:16:56.008Z,3.55
2023-01-11T18:19:31.597Z,3.53
2023-01-11T18:21:58.707Z,3.50
2023-01-11T18:24:29.671Z,3.48
2023-01-11T18:27:15.595Z,3.45
2023-01-11T18:29:42.462Z,3.44
2023-01-11T18:32:13.030Z,3.43
2023-01-11T18:34:40.436Z,3.41
2023-01-11T18:37:07.548Z,3.42
2023-01-11T18:39:35.347Z,3.41
2023-01-11T18:42:07.570Z,3.41
2023-01-11T18:44:45.782Z,3.40
2023-01-11T18:47:15.917Z,3.40
2023-01-11T18:49:42.755Z,3.39
2023-01-11T18:52:10.493Z,3.40
2023-01-11T18:54:37.489Z,3.39
2023-01-11T18:57:04.281Z,3.41
2023-01-11T18:59:31.024Z,3.42
2023-01-11T19:02:17.634Z,3.45
2023-01-11T19:04:44.831Z,3.46
2023-01-11T19:07:11.889Z,3.44
2023-01-11T19:09:38.644Z,3.42
2023-01-11T19:12:05.907Z,3.42
2023-01-11T19:14:32.574Z,3.40
2023-01-11T19:16:59.408Z,3.42
2023-01-11T19:19:25.985Z,3.41
2023-01-11T19:21:52.506Z,3.38
2023-01-11T19:24:19.948Z,3.38
2023-01-11T19:26:46.474Z,3.40
2023-01-11T19:29:17.372Z,3.44
2023-01-11T19:31:45.290Z,3.46
2023-01-11T19:34:12.515Z,3.44
2023-01-11T19:36:39.497Z,3.45
2023-01-11T19:39:06.928Z,3.46
2023-01-11T19:41:53.534Z,3.44
2023-01-11T19:44:27.177Z,3.46
2023-01-11T19:47:09.742Z,3.45
2023-01-11T19:49:37.477Z,3.44
2023-01-11T19:52:04.268Z,3.46
2023-01-11T19:54:30.782Z,3.46
2023-01-11T19:56:57.739Z,3.43
2023-01-11T19:59:24.241Z,3.45
2023-01-11T20:01:50.762Z,3.46
2023-01-11T20:04:17.631Z,3.47
2023-01-11T20:06:50.347Z,3.48
2023-01-11T20:09:18.209Z,3.52
2023-01-11T20:11:45.750Z,3.54
2023-01-11T20:14:12.429Z,3.57
2023-01-11T20:16:39.099Z,3.59
2023-01-11T20:19:05.756Z,3.59
2023-01-11T20:21:34.226Z,3.60
2023-01-11T20:24:03.448Z,3.59
2023-01-11T20:26:31.740Z,3.63
2023-01-11T20:29:00.602Z,3.64
2023-01-11T20:31:31.679Z,3.65
2023-01-11T20:34:00.792Z,3.63
2023-01-11T20:36:27.911Z,3.64
2023-01-11T20:38:55.768Z,3.70
2023-01-11T20:41:44.350Z,3.68
2023-01-11T20:44:11.608Z,3.66
2023-01-11T20:46:38.718Z,3.67
2023-01-11T20:49:06.280Z,3.71
2023-01-11T20:51:33.568Z,3.70
2023-01-11T20:54:00.220Z,3.69
2023-01-11T20:56:26.805Z,3.69
2023-01-11T20:58:53.400Z,3.66
2023-01-11T21:01:26.744Z,3.69
2023-01-11T21:04:05.212Z,3.71
2023-01-11T21:06:33.439Z,3.70
2023-01-11T21:09:01.618Z,3.72
2023-01-11T21:11:29.300Z,3.72
2023-01-11T21:16:24.615Z,3.78
2023-01-11T21:19:02.218Z,3.76
2023-01-11T21:21:30.838Z,3.74
2023-01-11T21:24:00.760Z,3.75
2023-01-11T21:26:28.791Z,3.74
2023-01-11T21:29:00.155Z,3.79
2023-01-11T21:31:32.539Z,3.80
2023-01-11T21:34:00.890Z,3.81
2023-01-11T21:36:29.436Z,3.83
2023-01-11T21:38:58.067Z,3.85
2023-01-11T21:41:45.847Z,3.84
2023-01-11T21:44:13.595Z,3.83
2023-01-11T21:46:40.847Z,3.83
2023-01-11T21:49:07.976Z,3.81
2023-01-11T21:51:35.380Z,3.84
2023-01-11T21:54:07.562Z,3.81
2023-01-11T21:56:35.206Z,3.82
2023-01-11T21:59:02.683Z,3.81
2023-01-11T22:01:29.897Z,3.84
2023-01-11T22:03:57.279Z,3.79
2023-01-11T22:06:24.360Z,3.82
2023-01-11T22:08:51.054Z,3.87
2023-01-11T22:11:18.260Z,3.88
2023-01-11T22:13:45.164Z,3.85
2023-01-11T22:16:14.807Z,3.84
2023-01-11T22:18:41.885Z,3.85
2023-01-11T22:21:18.015Z,3.84
2023-01-11T22:23:45.922Z,3.89
2023-01-11T22:26:17.827Z,3.87
2023-01-11T22:29:04.477Z,3.87
2023-01-11T22:31:32.239Z,3.86
2023-01-11T22:33:59.919Z,3.90
2023-01-11T22:36:27.786Z,3.90
2023-01-11T22:38:55.955Z,3.90
2023-01-11T22:41:25.011Z,3.92
2023-01-11T22:43:52.554Z,3.95
2023-01-11T22:46:22.051Z,3.93
2023-01-11T22:48:48.995Z,3.95
2023-01-11T22:51:18.321Z,3.97
2023-01-11T22:53:46.498Z,3.98
2023-01-11T22:56:14.955Z,4.00
2023-01-11T22:58:41.782Z,4.00
2023-01-11T23:01:11.637Z,4.02
2023-01-11T23:03:39.007Z,4.05
2023-01-11T23:06:06.336Z,4.01
2023-01-11T23:08:37.740Z,4.04
2023-01-11T23:11:04.340Z,4.02
2023-01-11T23:13:49.288Z,4.02
2023-01-11T23:16:15.900Z,4.05
2023-01-11T23:18:42.528Z,4.09
2023-01-11T23:21:09.107Z,4.04
2023-01-11T23:23:35.724Z,4.03
2023-01-11T23:26:02.312Z,4.04
2023-01-11T23:28:30.765Z,4.03
2023-01-11T23:30:57.260Z,3.96
2023-01-11T23:33:23.822Z,3.93
2023-01-11T23:35:59.899Z,3.89
2023-01-11T23:38:26.394Z,3.90
2023-01-11T23:41:11.764Z,3.88
2023-01-11T23:43:41.091Z,3.83
2023-01-11T23:46:33.956Z,3.83
2023-01-11T23:49:02.666Z,3.82
2023-01-11T23:51:29.163Z,3.73
2023-01-11T23:53:55.722Z,3.74
2023-01-11T23:56:22.257Z,3.65
2023-01-11T23:58:48.836Z,3.72
